Map

Track Data

SID SEASON NUMBER BASIN SUBBASIN NAME ISO_TIME NATURE LAT LON WMO_WIND WMO_PRES WMO_AGENCY TRACK_TYPE DIST2LAND LANDFALL IFLAG USA_AGENCY USA_ATCF_ID USA_LAT USA_LON USA_RECORD USA_STATUS USA_WIND USA_PRES USA_SSHS USA_R34_NE USA_R34_SE USA_R34_SW USA_R34_NW USA_R50_NE USA_R50_SE USA_R50_SW USA_R50_NW USA_R64_NE USA_R64_SE USA_R64_SW USA_R64_NW USA_POCI USA_ROCI USA_RMW USA_EYE TOKYO_LAT TOKYO_LON TOKYO_GRADE TOKYO_WIND TOKYO_PRES TOKYO_R50_DIR TOKYO_R50_LONG TOKYO_R50_SHORT TOKYO_R30_DIR TOKYO_R30_LONG TOKYO_R30_SHORT TOKYO_LAND CMA_LAT CMA_LON CMA_CAT CMA_WIND CMA_PRES HKO_LAT HKO_LON HKO_CAT HKO_WIND HKO_PRES NEWDELHI_LAT NEWDELHI_LON NEWDELHI_GRADE NEWDELHI_WIND NEWDELHI_PRES NEWDELHI_CI NEWDELHI_DP NEWDELHI_POCI REUNION_LAT REUNION_LON REUNION_TYPE REUNION_WIND REUNION_PRES REUNION_TNUM REUNION_CI REUNION_RMW REUNION_R34_NE REUNION_R34_SE REUNION_R34_SW REUNION_R34_NW REUNION_R50_NE REUNION_R50_SE REUNION_R50_SW REUNION_R50_NW REUNION_R64_NE REUNION_R64_SE REUNION_R64_SW REUNION_R64_NW BOM_LAT BOM_LON BOM_TYPE BOM_WIND BOM_PRES BOM_TNUM BOM_CI BOM_RMW BOM_R34_NE BOM_R34_SE BOM_R34_SW BOM_R34_NW BOM_R50_NE BOM_R50_SE BOM_R50_SW BOM_R50_NW BOM_R64_NE BOM_R64_SE BOM_R64_SW BOM_R64_NW BOM_ROCI BOM_POCI BOM_EYE BOM_POS_METHOD BOM_PRES_METHOD NADI_LAT NADI_LON NADI_CAT NADI_WIND NADI_PRES WELLINGTON_LAT WELLINGTON_LON WELLINGTON_WIND WELLINGTON_PRES DS824_LAT DS824_LON DS824_STAGE DS824_WIND DS824_PRES TD9636_LAT TD9636_LON TD9636_STAGE TD9636_WIND TD9636_PRES TD9635_LAT TD9635_LON TD9635_WIND TD9635_PRES TD9635_ROCI NEUMANN_LAT NEUMANN_LON NEUMANN_CLASS NEUMANN_WIND NEUMANN_PRES MLC_LAT MLC_LON MLC_CLASS MLC_WIND MLC_PRES USA_GUST BOM_GUST BOM_GUST_PER REUNION_GUST REUNION_GUST_PER USA_SEAHGT USA_SEARAD_NE USA_SEARAD_SE USA_SEARAD_SW USA_SEARAD_NW STORM_SPEED STORM_DIR
1937256N17304 1937 44 NA NA NOT_NAMED 1937-09-13 06:00:00 TS 17.0000 -56.4000 40 hurdat_atl main 862 856 O_____________ hurdat_atl AL061937 17.0000 -56.4000 TS 40 0 5 311
1937256N17304 1937 44 NA NA NOT_NAMED 1937-09-13 09:00:00 TS 17.1625 -56.5974 main 868 863 P_____________ AL061937 17.1625 -56.5974 TS 40 0 5 308
1937256N17304 1937 44 NA NA NOT_NAMED 1937-09-13 12:00:00 TS 17.3000 -56.8000 40 hurdat_atl main 866 861 O_____________ hurdat_atl AL061937 17.3000 -56.8000 TS 40 0 5 301
1937256N17304 1937 44 NA NA NOT_NAMED 1937-09-13 15:00:00 TS 17.4000 -57.0076 main 865 859 P_____________ AL061937 17.4000 -57.0076 TS 42 0 4 298
1937256N17304 1937 44 NA NA NOT_NAMED 1937-09-13 18:00:00 TS 17.5000 -57.2000 45 hurdat_atl main 864 859 O_____________ hurdat_atl AL061937 17.5000 -57.2000 TS 45 0 4 305
1937256N17304 1937 44 NA NA NOT_NAMED 1937-09-13 21:00:00 TS 17.6350 -57.3575 main 864 857 P_____________ AL061937 17.6350 -57.3575 TS 47 0 4 317
1937256N17304 1937 44 NA NA NOT_NAMED 1937-09-14 00:00:00 TS 17.8000 -57.5000 50 hurdat_atl main 857 845 O_____________ hurdat_atl AL061937 17.8000 -57.5000 TS 50 0 5 321
1937256N17304 1937 44 NA NA NOT_NAMED 1937-09-14 03:00:00 TS 17.9850 -57.6575 main 835 823 P_____________ AL061937 17.9850 -57.6575 TS 52 0 5 325
1937256N17304 1937 44 NA NA NOT_NAMED 1937-09-14 06:00:00 TS 18.2000 -57.8000 55 hurdat_atl main 823 812 O_____________ hurdat_atl AL061937 18.2000 -57.8000 TS 55 0 5 332
1937256N17304 1937 44 NA NA NOT_NAMED 1937-09-14 09:00:00 TS 18.4350 -57.9076 main 812 801 P_____________ AL061937 18.4350 -57.9076 TS 60 0 5 339
1937256N17304 1937 44 NA NA NOT_NAMED 1937-09-14 12:00:00 TS 18.7000 -58.0000 65 hurdat_atl main 801 791 O_____________ hurdat_atl AL061937 18.7000 -58.0000 HU 65 1 6 339
1937256N17304 1937 44 NA NA NOT_NAMED 1937-09-14 15:00:00 TS 18.9850 -58.1373 main 792 782 P_____________ AL061937 18.9850 -58.1373 HU 70 1 6 342
1937256N17304 1937 44 NA NA NOT_NAMED 1937-09-14 18:00:00 TS 19.3000 -58.2000 75 hurdat_atl main 785 785 O_____________ hurdat_atl AL061937 19.3000 -58.2000 HU 75 1 7 5
1937256N17304 1937 44 NA NA NOT_NAMED 1937-09-14 21:00:00 TS 19.6425 -58.0802 main 799 799 P_____________ AL061937 19.6425 -58.0802 HU 82 1 8 22
1937256N17304 1937 44 NA NA NOT_NAMED 1937-09-15 00:00:00 TS 20.0000 -57.9000 90 969 hurdat_atl main 828 828 O_____________ hurdat_atl AL061937 20.0000 -57.9000 HU 90 969 2 8 20
1937256N17304 1937 44 NA NA NOT_NAMED 1937-09-15 03:00:00 TS 20.3500 -57.7999 main 845 845 P_____________ AL061937 20.3500 -57.7999 HU 100 960 3 7 15
1937256N17304 1937 44 NA NA NOT_NAMED 1937-09-15 06:00:00 TS 20.7000 -57.7000 110 951 hurdat_atl main 866 866 O_____________ hurdat_atl AL061937 20.7000 -57.7000 HU 110 951 3 8 15
1937256N17304 1937 44 NA NA NOT_NAMED 1937-09-15 09:00:00 TS 21.0799 -57.5874 main 889 889 P_____________ AL061937 21.0799 -57.5874 HU 110 953 3 8 22
1937256N17304 1937 44 NA NA NOT_NAMED 1937-09-15 12:00:00 TS 21.4000 -57.4000 110 955 hurdat_atl main 920 920 O_____________ hurdat_atl AL061937 21.4000 -57.4000 HU 110 955 3 7 41
1937256N17304 1937 44 NA NA NOT_NAMED 1937-09-15 15:00:00 TS 21.5948 -57.1100 main 957 957 P_____________ AL061937 21.5948 -57.1100 HU 110 3 7 65
1937256N17304 1937 44 NA NA NOT_NAMED 1937-09-15 18:00:00 TS 21.7000 -56.7000 110 hurdat_atl main 999 999 O_____________ hurdat_atl AL061937 21.7000 -56.7000 HU 110 3 9 79
1937256N17304 1937 44 NA NA NOT_NAMED 1937-09-15 21:00:00 TS 21.7650 -56.1873 main 1052 1052 P_____________ AL061937 21.7650 -56.1873 HU 107 3 10 84
1937256N17304 1937 44 NA NA NOT_NAMED 1937-09-16 00:00:00 TS 21.8000 -55.6000 105 hurdat_atl main 1110 1110 O_____________ hurdat_atl AL061937 21.8000 -55.6000 HU 105 3 11 86
1937256N17304 1937 44 NA NA NOT_NAMED 1937-09-16 03:00:00 TS 21.8424 -54.9999 main 1169 1169 P_____________ AL061937 21.8424 -54.9999 HU 105 3 11 85
1937256N17304 1937 44 NA NA NOT_NAMED 1937-09-16 06:00:00 TS 21.9000 -54.4000 105 hurdat_atl main 1232 1232 O_____________ hurdat_atl AL061937 21.9000 -54.4000 HU 105 3 11 85
1937256N17304 1937 44 NA NA NOT_NAMED 1937-09-16 09:00:00 TS 21.9325 -53.8120 main 1291 1291 P_____________ AL061937 21.9325 -53.8120 HU 105 3 10 79
1937256N17304 1937 44 NA NA NOT_NAMED 1937-09-16 12:00:00 TS 22.1000 -53.3000 105 hurdat_atl main 1347 1347 O_____________ hurdat_atl AL061937 22.1000 -53.3000 HU 105 3 10 56
1937256N17304 1937 44 NA NA NOT_NAMED 1937-09-16 15:00:00 TS 22.4948 -52.9049 main 1399 1399 P_____________ AL061937 22.4948 -52.9049 HU 102 3 12 33
1937256N17304 1937 44 NA NA NOT_NAMED 1937-09-16 18:00:00 TS 23.1000 -52.6000 100 hurdat_atl main 1449 1449 O_____________ hurdat_atl AL061937 23.1000 -52.6000 HU 100 3 15 22
1937256N17304 1937 44 NA NA NOT_NAMED 1937-09-16 21:00:00 TS 23.8550 -52.3200 main 1508 1508 P_____________ AL061937 23.8550 -52.3200 HU 100 3 17 16
1937256N17304 1937 44 NA NA NOT_NAMED 1937-09-17 00:00:00 TS 24.7000 -52.1000 100 hurdat_atl main 1562 1562 O_____________ hurdat_atl AL061937 24.7000 -52.1000 HU 100 3 17 12
1937256N17304 1937 44 NA NA NOT_NAMED 1937-09-17 03:00:00 TS 25.5149 -51.9346 main 1618 1618 P_____________ AL061937 25.5149 -51.9346 HU 100 3 16 10
1937256N17304 1937 44 NA NA NOT_NAMED 1937-09-17 06:00:00 TS 26.3000 -51.8000 100 hurdat_atl main 1669 1669 O_____________ hurdat_atl AL061937 26.3000 -51.8000 HU 100 3 15 10
1937256N17304 1937 44 NA NA NOT_NAMED 1937-09-17 09:00:00 TS 27.0075 -51.6497 main 1725 1725 P_____________ AL061937 27.0075 -51.6497 HU 97 3 14 11
1937256N17304 1937 44 NA NA NOT_NAMED 1937-09-17 12:00:00 TS 27.7000 -51.5000 95 hurdat_atl main 1775 1775 O_____________ hurdat_atl AL061937 27.7000 -51.5000 HU 95 2 14 11
1937256N17304 1937 44 NA NA NOT_NAMED 1937-09-17 15:00:00 TS 28.4125 -51.3497 main 1834 1834 P_____________ AL061937 28.4125 -51.3497 HU 95 2 15 10
1937256N17304 1937 44 NA NA NOT_NAMED 1937-09-17 18:00:00 TS 29.2000 -51.2000 95 hurdat_atl main 1894 1857 O_____________ hurdat_atl AL061937 29.2000 -51.2000 HU 95 2 17 8
1937256N17304 1937 44 NA NA NOT_NAMED 1937-09-17 21:00:00 TS 30.0900 -51.0714 main 1845 1747 P_____________ AL061937 30.0900 -51.0714 HU 95 2 19 8
1937256N17304 1937 44 NA NA NOT_NAMED 1937-09-18 00:00:00 TS 31.1000 -50.9000 95 hurdat_atl main 1736 1627 O_____________ hurdat_atl AL061937 31.1000 -50.9000 HU 95 2 22 10
1937256N17304 1937 44 NA NA NOT_NAMED 1937-09-18 03:00:00 TS 32.2125 -50.6370 main 1617 1500 P_____________ AL061937 32.2125 -50.6370 HU 95 2 24 12
1937256N17304 1937 44 NA NA NOT_NAMED 1937-09-18 06:00:00 TS 33.4000 -50.3000 95 hurdat_atl main 1489 1374 O_____________ hurdat_atl AL061937 33.4000 -50.3000 HU 95 2 25 15
1937256N17304 1937 44 NA NA NOT_NAMED 1937-09-18 09:00:00 TS 34.5852 -49.9001 main 1363 1250 P_____________ AL061937 34.5852 -49.9001 HU 95 2 25 15
1937256N17304 1937 44 NA NA NOT_NAMED 1937-09-18 12:00:00 TS 35.8000 -49.5000 95 hurdat_atl main 1240 1117 O_____________ hurdat_atl AL061937 35.8000 -49.5000 HU 95 2 25 13
1937256N17304 1937 44 NA NA NOT_NAMED 1937-09-18 15:00:00 TS 37.0422 -49.1905 main 1117 997 P_____________ AL061937 37.0422 -49.1905 HU 92 2 26 11
1937256N17304 1937 44 NA NA NOT_NAMED 1937-09-18 18:00:00 TS 38.3000 -48.9000 90 hurdat_atl main 987 872 O_____________ hurdat_atl AL061937 38.3000 -48.9000 HU 90 2 26 11
1937256N17304 1937 44 NA NA NOT_NAMED 1937-09-18 21:00:00 TS 39.5499 -48.5566 main 872 768 P_____________ AL061937 39.5499 -48.5566 HU 90 2 26 12
1937256N17304 1937 44 NA NA NOT_NAMED 1937-09-19 00:00:00 TS 40.8000 -48.2000 90 hurdat_atl main 758 661 O_____________ hurdat_atl AL061937 40.8000 -48.2000 HU 90 2 26 12
1937256N17304 1937 44 NA NA NOT_NAMED 1937-09-19 03:00:00 TS 42.0571 -47.8699 main 652 585 P_____________ AL061937 42.0571 -47.8699 HU 87 2 26 12
1937256N17304 1937 44 NA NA NOT_NAMED 1937-09-19 06:00:00 TS 43.3000 -47.5000 85 hurdat_atl main 577 523 O_____________ hurdat_atl AL061937 43.3000 -47.5000 HU 85 2 26 13
1937256N17304 1937 44 NA NA NOT_NAMED 1937-09-19 09:00:00 TS 44.5519 -47.0584 main 517 503 P_____________ AL061937 44.5519 -47.0584 HU 82 1 25 17
1937256N17304 1937 44 NA NA NOT_NAMED 1937-09-19 12:00:00 TS 45.7000 -46.5000 80 967 hurdat_atl main 505 498 O_____________ hurdat_atl AL061937 45.7000 -46.5000 HU 80 967 1 22 21
1937256N17304 1937 44 NA NA NOT_NAMED 1937-09-19 15:00:00 TS 46.6260 -45.9264 main 515 512 P_____________ AL061937 46.6260 -45.9264 HU 77 1 21 30
1937256N17304 1937 44 NA NA NOT_NAMED 1937-09-19 18:00:00 ET 47.5000 -45.0000 75 hurdat_atl main 568 568 O_____________ hurdat_atl AL061937 47.5000 -45.0000 EX 75 -4 25 42
1937256N17304 1937 44 NA NA NOT_NAMED 1937-09-19 21:00:00 ET 48.4881 -43.4023 main 690 690 P_____________ AL061937 48.4881 -43.4023 EX 70 -4 31 49
1937256N17304 1937 44 NA NA NOT_NAMED 1937-09-20 00:00:00 ET 49.5000 -41.5000 65 hurdat_atl main 837 837 O_____________ hurdat_atl AL061937 49.5000 -41.5000 EX 65 -4 31 50
1937256N17304 1937 44 NA NA NOT_NAMED 1937-09-20 03:00:00 ET 50.4980 -39.7287 main 979 979 P_____________ AL061937 50.4980 -39.7287 EX 60 -4 30 48
1937256N17304 1937 44 NA NA NOT_NAMED 1937-09-20 06:00:00 ET 51.5000 -38.0000 55 hurdat_atl main 1003 943 O_____________ hurdat_atl AL061937 51.5000 -38.0000 EX 55 -4 29 47
1937256N17304 1937 44 NA NA NOT_NAMED 1937-09-20 09:00:00 ET 52.4967 -36.3336 main 938 891 P_____________ AL061937 52.4967 -36.3336 EX 52 -4 28 45
1937256N17304 1937 44 NA NA NOT_NAMED 1937-09-20 12:00:00 ET 53.5000 -34.7000 50 hurdat_atl main 888 863 O_____________ hurdat_atl AL061937 53.5000 -34.7000 EX 50 -4 28 44
1937256N17304 1937 44 NA NA NOT_NAMED 1937-09-20 15:00:00 ET 54.5052 -33.0329 main 863 853 P_____________ AL061937 54.5052 -33.0329 EX 50 -4 28 45
1937256N17304 1937 44 NA NA NOT_NAMED 1937-09-20 18:00:00 ET 55.5000 -31.3000 50 hurdat_atl main 859 O_____________ hurdat_atl AL061937 55.5000 -31.3000 EX 50 -4 28 45

About IBTrACS Database

This database is a web-friendly format of International Best Track Archive for Climate Stewardship (IBTrACS), a global best track data archive curated by NOAA dating back to 1842.

Updated: 2021-10-27